createdAt,value
2019-03-31T00:01:38.754Z,99.90
2019-03-31T00:04:09.573Z,99.90
2019-03-31T00:06:40.416Z,99.90
2019-03-31T00:09:12.513Z,99.90
2019-03-31T00:11:43.338Z,99.90
2019-03-31T00:14:14.203Z,99.90
2019-03-31T00:16:45.062Z,99.90
2019-03-31T00:19:15.876Z,99.90
2019-03-31T00:21:46.955Z,99.90
2019-03-31T00:24:17.730Z,99.90
2019-03-31T00:26:48.954Z,99.90
2019-03-31T00:29:19.744Z,99.90
2019-03-31T00:31:50.552Z,99.90
2019-03-31T00:34:21.368Z,99.90
2019-03-31T00:36:52.255Z,99.90
2019-03-31T00:39:23.090Z,99.90
2019-03-31T00:41:53.976Z,99.90
2019-03-31T00:44:24.740Z,99.90
2019-03-31T00:46:57.154Z,99.90
2019-03-31T00:49:27.930Z,99.90
2019-03-31T00:51:58.760Z,99.90
2019-03-31T00:54:29.595Z,99.90
2019-03-31T00:57:00.482Z,99.90
2019-03-31T00:59:31.398Z,99.90
2019-03-31T01:02:08.306Z,99.90
2019-03-31T01:04:39.371Z,99.90
2019-03-31T01:07:11.584Z,99.90
2019-03-31T01:09:43.175Z,99.90
2019-03-31T01:12:14.072Z,99.90
2019-03-31T01:14:45.620Z,99.90
2019-03-31T01:17:18.978Z,99.90
2019-03-31T01:19:50.014Z,99.90
2019-03-31T01:22:20.997Z,99.90
2019-03-31T01:24:52.259Z,99.90
2019-03-31T01:27:23.173Z,99.90
2019-03-31T01:29:53.980Z,99.90
2019-03-31T01:32:24.813Z,99.90
2019-03-31T01:34:57.168Z,99.90
2019-03-31T01:37:27.982Z,99.90
2019-03-31T01:39:58.889Z,99.90
2019-03-31T01:42:30.028Z,99.90
2019-03-31T01:45:00.822Z,99.90
2019-03-31T01:47:31.634Z,99.90
2019-03-31T01:50:02.444Z,99.90
2019-03-31T01:52:33.330Z,99.90
2019-03-31T01:55:04.233Z,99.90
2019-03-31T01:57:35.073Z,99.90
2019-03-31T02:00:10.529Z,99.90
2019-03-31T02:02:41.587Z,99.90
2019-03-31T02:05:12.393Z,99.90
2019-03-31T02:07:43.620Z,99.90
2019-03-31T02:10:14.985Z,99.90
2019-03-31T02:12:46.789Z,99.90
2019-03-31T02:15:17.693Z,99.90
2019-03-31T02:17:48.546Z,99.90
2019-03-31T02:20:19.365Z,99.90
2019-03-31T02:22:50.197Z,99.90
2019-03-31T02:25:20.995Z,99.90
2019-03-31T02:27:51.922Z,99.90
2019-03-31T02:30:23.321Z,99.90
2019-03-31T02:32:54.132Z,99.90
2019-03-31T02:35:25.555Z,99.90
2019-03-31T02:37:56.381Z,99.90
2019-03-31T02:40:27.526Z,99.90
2019-03-31T02:42:58.726Z,99.90
2019-03-31T02:45:29.550Z,99.90
2019-03-31T02:48:00.335Z,99.90
2019-03-31T02:50:46.210Z,99.90
2019-03-31T02:53:18.042Z,99.90
2019-03-31T02:55:49.288Z,99.90
2019-03-31T02:58:20.854Z,99.90
2019-03-31T03:00:51.659Z,99.90
2019-03-31T03:03:22.537Z,99.90
2019-03-31T03:05:54.854Z,99.90
2019-03-31T03:08:27.270Z,99.90
2019-03-31T03:11:01.211Z,99.90
2019-03-31T03:13:34.801Z,99.90
2019-03-31T03:16:19.860Z,99.90
2019-03-31T03:18:50.881Z,99.90
2019-03-31T03:21:24.565Z,99.90
2019-03-31T03:23:55.075Z,99.90
2019-03-31T03:26:26.472Z,99.90
2019-03-31T03:28:57.278Z,99.90
2019-03-31T03:31:28.139Z,99.90
2019-03-31T03:33:58.986Z,99.90
2019-03-31T03:36:29.768Z,99.90
2019-03-31T03:39:00.498Z,99.90
2019-03-31T03:41:31.397Z,99.90
2019-03-31T03:44:02.891Z,99.90
2019-03-31T03:46:33.968Z,99.90
2019-03-31T03:49:05.332Z,99.90
2019-03-31T03:51:36.796Z,99.90
2019-03-31T03:54:07.608Z,99.90
2019-03-31T03:56:38.444Z,99.90
2019-03-31T03:59:09.239Z,99.90
2019-03-31T04:01:40.064Z,99.90
2019-03-31T04:04:10.882Z,99.90
2019-03-31T04:06:41.690Z,99.90
2019-03-31T04:09:12.553Z,99.90
2019-03-31T04:11:43.432Z,99.90
2019-03-31T04:14:14.879Z,99.90
2019-03-31T04:16:45.689Z,99.90
2019-03-31T04:19:16.854Z,99.90
2019-03-31T04:21:47.636Z,99.90
2019-03-31T04:24:18.662Z,99.90
2019-03-31T04:26:50.527Z,99.90
2019-03-31T04:29:21.332Z,99.90
2019-03-31T04:31:52.161Z,99.90
2019-03-31T04:34:22.954Z,99.90
2019-03-31T04:36:54.257Z,99.90
2019-03-31T04:39:25.187Z,99.90
2019-03-31T04:41:56.506Z,99.90
2019-03-31T04:44:27.378Z,99.90
2019-03-31T04:46:58.186Z,99.90
2019-03-31T04:49:29.103Z,99.90
2019-03-31T04:51:59.938Z,99.90
2019-03-31T04:54:30.734Z,99.90
2019-03-31T04:57:04.421Z,99.90
2019-03-31T04:59:34.029Z,99.90
2019-03-31T05:02:04.799Z,99.90
2019-03-31T05:04:35.624Z,99.90
2019-03-31T05:07:06.399Z,99.90
2019-03-31T05:09:37.550Z,99.90
2019-03-31T05:12:08.267Z,99.90
2019-03-31T05:14:39.807Z,99.90
2019-03-31T05:17:10.596Z,99.90
2019-03-31T05:19:41.445Z,99.90
2019-03-31T05:22:12.212Z,99.90
2019-03-31T05:24:43.061Z,99.90
2019-03-31T05:27:13.834Z,99.90
2019-03-31T05:29:44.602Z,99.90
2019-03-31T05:32:15.351Z,99.90
2019-03-31T05:34:46.146Z,99.90
2019-03-31T05:37:17.383Z,99.90
2019-03-31T05:39:48.140Z,99.90
2019-03-31T05:42:19.458Z,99.90
2019-03-31T05:44:50.259Z,99.90
2019-03-31T05:47:21.341Z,99.90
2019-03-31T05:49:52.117Z,99.90
2019-03-31T05:52:22.891Z,99.90
2019-03-31T05:54:54.458Z,99.90
2019-03-31T05:57:25.228Z,99.90
2019-03-31T05:59:55.991Z,99.90
2019-03-31T06:02:26.971Z,99.90
2019-03-31T06:04:57.863Z,99.90
2019-03-31T06:07:28.672Z,99.90
2019-03-31T06:09:59.554Z,99.90
2019-03-31T06:12:30.353Z,99.90
2019-03-31T06:15:01.117Z,99.90
2019-03-31T06:17:32.305Z,99.90
2019-03-31T06:20:03.327Z,99.90
2019-03-31T06:22:34.201Z,99.90
2019-03-31T06:25:05.509Z,99.90
2019-03-31T06:27:36.389Z,99.90
2019-03-31T06:30:08.738Z,99.90
2019-03-31T06:32:39.472Z,99.90
2019-03-31T06:35:10.598Z,99.90
2019-03-31T06:37:41.378Z,99.90
2019-03-31T06:40:12.199Z,99.90
2019-03-31T06:42:43.021Z,99.90
2019-03-31T06:45:13.973Z,99.90
2019-03-31T06:47:44.783Z,99.90
2019-03-31T06:50:16.191Z,99.90
2019-03-31T06:52:46.990Z,99.90
2019-03-31T06:55:18.246Z,99.90
2019-03-31T06:57:49.051Z,99.90
2019-03-31T07:00:20.500Z,99.90
2019-03-31T07:02:51.400Z,99.90
2019-03-31T07:05:22.194Z,99.90
2019-03-31T07:07:53.235Z,99.90
2019-03-31T07:10:24.075Z,99.90
2019-03-31T07:12:55.307Z,99.90
2019-03-31T07:15:26.189Z,99.90
2019-03-31T07:17:57.307Z,99.90
2019-03-31T07:20:28.163Z,99.90
2019-03-31T07:23:00.192Z,99.90
2019-03-31T07:25:31.144Z,99.90
2019-03-31T07:28:02.202Z,99.90
2019-03-31T07:30:32.967Z,99.90
2019-03-31T07:33:04.150Z,99.90
2019-03-31T07:35:34.962Z,99.90
2019-03-31T07:38:05.858Z,99.90
2019-03-31T07:40:37.029Z,99.90
2019-03-31T07:43:07.953Z,99.90
2019-03-31T07:45:38.943Z,99.90
2019-03-31T07:48:09.937Z,99.90
2019-03-31T07:50:41.548Z,99.90
2019-03-31T07:53:12.347Z,99.90
2019-03-31T07:55:43.568Z,99.90
2019-03-31T07:58:14.356Z,99.90
2019-03-31T08:00:45.274Z,99.90
2019-03-31T08:03:16.138Z,99.90
2019-03-31T08:05:47.118Z,99.90
2019-03-31T08:08:18.108Z,99.90
2019-03-31T08:10:48.909Z,99.90
2019-03-31T08:13:19.794Z,99.90
2019-03-31T08:15:50.674Z,99.90
2019-03-31T08:18:21.825Z,99.90
2019-03-31T08:20:52.632Z,99.90
2019-03-31T08:23:23.452Z,99.90
2019-03-31T08:25:54.302Z,99.90
2019-03-31T08:28:25.954Z,99.90
2019-03-31T08:30:57.398Z,99.90
2019-03-31T08:33:28.203Z,99.90
2019-03-31T08:35:58.998Z,99.90
2019-03-31T08:38:30.203Z,99.90
2019-03-31T08:41:01.016Z,99.90
2019-03-31T08:43:31.799Z,99.90
2019-03-31T08:46:02.661Z,99.90
2019-03-31T08:48:33.866Z,99.90
2019-03-31T08:51:04.665Z,99.90
2019-03-31T08:53:35.602Z,99.90
2019-03-31T08:56:08.793Z,99.90
2019-03-31T08:58:38.954Z,99.90
2019-03-31T09:01:14.772Z,99.90
2019-03-31T09:03:45.455Z,99.90
2019-03-31T09:06:16.266Z,99.90
2019-03-31T09:08:47.061Z,99.90
2019-03-31T09:11:19.988Z,99.90
2019-03-31T09:13:50.822Z,99.90
2019-03-31T09:16:22.094Z,99.90
2019-03-31T09:18:53.127Z,99.90
2019-03-31T09:21:23.951Z,99.90
2019-03-31T09:23:54.762Z,99.90
2019-03-31T09:26:25.628Z,99.90
2019-03-31T09:28:56.405Z,99.90
2019-03-31T09:31:27.222Z,99.90
2019-03-31T09:33:58.057Z,99.90
2019-03-31T09:36:28.880Z,99.90
2019-03-31T09:38:59.694Z,99.90
2019-03-31T09:41:30.559Z,99.90
2019-03-31T09:44:01.370Z,99.90
2019-03-31T09:46:32.185Z,99.90
2019-03-31T09:49:02.996Z,99.90
2019-03-31T09:51:33.833Z,99.90
2019-03-31T09:54:04.577Z,99.90
2019-03-31T09:56:35.528Z,99.90
2019-03-31T09:59:06.366Z,99.90
2019-03-31T10:01:38.109Z,99.90
2019-03-31T10:04:08.896Z,99.90
2019-03-31T10:06:39.921Z,99.90
2019-03-31T10:09:10.638Z,99.90
2019-03-31T10:11:41.548Z,99.90
2019-03-31T10:14:12.359Z,99.90
2019-03-31T10:16:43.268Z,99.90
2019-03-31T10:19:14.091Z,99.90
2019-03-31T10:21:45.314Z,99.90
2019-03-31T10:24:16.047Z,99.90
2019-03-31T10:26:46.868Z,99.90
2019-03-31T10:29:17.713Z,99.90
2019-03-31T10:31:48.597Z,99.90
2019-03-31T10:34:19.460Z,99.90
2019-03-31T10:36:50.343Z,99.90
2019-03-31T10:39:21.499Z,99.90
2019-03-31T10:41:52.356Z,99.90
2019-03-31T10:44:23.385Z,99.90
2019-03-31T10:46:54.184Z,99.90
2019-03-31T10:49:25.373Z,99.90
2019-03-31T10:51:56.150Z,99.90
2019-03-31T10:54:27.015Z,99.90
2019-03-31T10:56:57.831Z,99.90
2019-03-31T10:59:28.647Z,99.90
2019-03-31T11:01:59.550Z,99.90
2019-03-31T11:04:30.360Z,99.90
2019-03-31T11:07:03.533Z,99.90
2019-03-31T11:09:34.444Z,99.90
2019-03-31T11:12:05.424Z,99.90
2019-03-31T11:14:36.233Z,99.90
2019-03-31T11:17:07.100Z,99.90
2019-03-31T11:19:38.017Z,99.90
2019-03-31T11:22:27.979Z,99.90
2019-03-31T11:25:21.173Z,99.90
2019-03-31T11:27:49.996Z,99.90
2019-03-31T11:30:22.410Z,99.90
2019-03-31T11:32:54.148Z,99.90
2019-03-31T11:35:25.071Z,99.90
2019-03-31T11:37:57.362Z,99.90
2019-03-31T11:40:28.191Z,99.90
2019-03-31T11:42:59.813Z,99.90
2019-03-31T11:45:31.060Z,99.90
2019-03-31T11:48:01.949Z,99.90
2019-03-31T11:50:32.767Z,99.90
2019-03-31T11:53:03.597Z,99.90
2019-03-31T11:55:34.420Z,99.90
2019-03-31T11:58:05.475Z,99.90
2019-03-31T12:00:40.627Z,99.90
2019-03-31T12:03:11.513Z,99.90
2019-03-31T12:05:42.327Z,99.90
2019-03-31T12:08:13.470Z,99.90
2019-03-31T12:10:44.250Z,99.90
2019-03-31T12:13:15.426Z,99.90
2019-03-31T12:15:46.214Z,99.90
2019-03-31T12:18:17.478Z,99.90
2019-03-31T12:20:48.702Z,99.90
2019-03-31T12:23:19.776Z,99.90
2019-03-31T12:25:50.901Z,99.90
2019-03-31T12:28:22.048Z,99.90
2019-03-31T12:30:52.822Z,99.90
2019-03-31T12:33:23.913Z,99.90
2019-03-31T12:35:54.787Z,99.90
2019-03-31T12:38:25.687Z,99.90
2019-03-31T12:40:56.514Z,99.90
2019-03-31T12:43:27.357Z,99.90
2019-03-31T12:45:58.155Z,99.90
2019-03-31T12:48:31.589Z,99.90
2019-03-31T12:51:01.409Z,99.90
2019-03-31T12:53:32.215Z,99.90
2019-03-31T12:56:04.606Z,99.90
2019-03-31T12:58:35.707Z,99.90
2019-03-31T13:01:06.762Z,99.90
2019-03-31T13:03:37.626Z,99.90
2019-03-31T13:06:08.603Z,99.90
2019-03-31T13:08:39.397Z,99.90
2019-03-31T13:11:10.344Z,99.90
2019-03-31T13:13:41.239Z,99.90
2019-03-31T13:16:12.087Z,99.90
2019-03-31T13:18:42.944Z,99.90
2019-03-31T13:21:13.761Z,99.90
2019-03-31T13:23:45.110Z,99.90
2019-03-31T13:26:16.191Z,99.90
2019-03-31T13:28:47.023Z,99.90
2019-03-31T13:31:17.887Z,99.90
2019-03-31T13:33:51.257Z,99.90
2019-03-31T13:36:22.091Z,99.90
2019-03-31T13:38:52.899Z,99.90
2019-03-31T13:41:24.096Z,99.90
2019-03-31T13:43:54.877Z,99.90
2019-03-31T13:46:25.751Z,99.90
2019-03-31T13:48:56.565Z,99.90
2019-03-31T13:51:27.349Z,99.90
2019-03-31T13:53:58.355Z,99.90
2019-03-31T13:56:29.561Z,99.90
2019-03-31T13:59:00.855Z,99.90
2019-03-31T14:01:31.638Z,99.90
2019-03-31T14:04:03.591Z,99.90
2019-03-31T14:06:34.919Z,99.90
2019-03-31T14:09:08.959Z,99.90
2019-03-31T14:11:39.741Z,99.90
2019-03-31T14:14:10.616Z,99.90
2019-03-31T14:16:41.869Z,99.90
2019-03-31T14:19:13.143Z,99.90
2019-03-31T14:21:44.432Z,99.90
2019-03-31T14:24:15.237Z,99.90
2019-03-31T14:26:47.847Z,99.90
2019-03-31T14:29:18.859Z,99.90
2019-03-31T14:31:51.946Z,99.90
2019-03-31T14:34:22.481Z,99.90
2019-03-31T14:36:53.548Z,99.90
2019-03-31T14:39:25.374Z,99.90
2019-03-31T14:41:56.228Z,99.90
2019-03-31T14:44:27.278Z,99.90
2019-03-31T14:46:58.155Z,99.90
2019-03-31T14:49:28.963Z,99.90
2019-03-31T14:52:01.478Z,99.90
2019-03-31T14:54:35.481Z,99.90
2019-03-31T14:57:06.267Z,99.90
2019-03-31T14:59:37.434Z,99.90
2019-03-31T15:02:08.249Z,99.90
2019-03-31T15:04:40.022Z,99.90
2019-03-31T15:07:10.825Z,99.90
2019-03-31T15:09:41.859Z,99.90
2019-03-31T15:12:12.645Z,99.90
2019-03-31T15:14:44.031Z,99.90
2019-03-31T15:17:14.834Z,99.90
2019-03-31T15:19:45.659Z,99.90
2019-03-31T15:22:16.535Z,99.90
2019-03-31T15:24:47.360Z,99.90
2019-03-31T15:27:18.211Z,99.90
2019-03-31T15:29:49.045Z,99.90
2019-03-31T15:32:19.763Z,99.90
2019-03-31T15:34:50.682Z,99.90
2019-03-31T15:37:21.487Z,99.90
2019-03-31T15:39:52.684Z,99.90
2019-03-31T15:42:23.729Z,99.90
2019-03-31T15:44:54.609Z,99.90
2019-03-31T15:47:25.402Z,99.90
2019-03-31T15:49:57.647Z,99.90
2019-03-31T15:52:28.463Z,99.90
2019-03-31T15:55:00.440Z,99.90
2019-03-31T15:57:31.166Z,99.90
2019-03-31T16:00:02.425Z,99.90
2019-03-31T16:02:34.466Z,99.90
2019-03-31T16:05:06.018Z,99.90
2019-03-31T16:07:36.792Z,99.90
2019-03-31T16:10:08.476Z,99.90
2019-03-31T16:12:39.918Z,99.90
2019-03-31T16:15:11.454Z,99.90
2019-03-31T16:17:41.892Z,99.90
2019-03-31T16:20:12.440Z,99.90
2019-03-31T16:22:42.694Z,99.90
2019-03-31T16:25:34.142Z,99.90
2019-03-31T16:28:04.326Z,99.90
2019-03-31T16:30:36.558Z,99.90
2019-03-31T16:33:07.790Z,99.90
2019-03-31T16:35:38.359Z,99.90
2019-03-31T16:38:08.692Z,99.90
2019-03-31T16:40:39.468Z,99.90
2019-03-31T16:43:09.718Z,99.90
2019-03-31T16:45:40.196Z,99.90
2019-03-31T16:48:10.942Z,99.90
2019-03-31T16:50:41.563Z,99.90
2019-03-31T16:53:11.704Z,99.90
2019-03-31T16:55:43.643Z,99.90
2019-03-31T16:58:13.826Z,99.90
2019-03-31T17:00:44.107Z,99.90
2019-03-31T17:03:14.361Z,99.90
2019-03-31T17:05:44.746Z,99.90
2019-03-31T17:08:14.981Z,99.90
2019-03-31T17:10:45.282Z,99.90
2019-03-31T17:13:15.576Z,99.90
2019-03-31T17:15:46.265Z,99.90
2019-03-31T17:18:16.607Z,99.90
2019-03-31T17:20:46.928Z,99.90
2019-03-31T17:23:17.234Z,99.90
2019-03-31T17:25:48.025Z,99.90
2019-03-31T17:28:18.314Z,99.90
2019-03-31T17:30:48.718Z,99.90
2019-03-31T17:33:19.019Z,99.90
2019-03-31T17:35:49.311Z,99.90
2019-03-31T17:38:19.652Z,99.90
2019-03-31T17:40:50.112Z,99.90
2019-03-31T17:43:20.368Z,99.90
2019-03-31T17:45:51.022Z,99.90
2019-03-31T17:48:21.368Z,99.90
2019-03-31T17:50:51.822Z,99.90
2019-03-31T17:53:22.109Z,99.90
2019-03-31T17:55:52.553Z,99.90
2019-03-31T17:58:23.987Z,99.90
2019-03-31T18:00:54.247Z,99.90
2019-03-31T18:03:24.502Z,99.90
2019-03-31T18:05:54.803Z,99.90
2019-03-31T18:08:25.051Z,99.90
2019-03-31T18:10:55.771Z,99.90
2019-03-31T18:13:26.072Z,99.90
2019-03-31T18:15:56.357Z,99.90
2019-03-31T18:18:26.627Z,99.90
2019-03-31T18:20:56.907Z,99.90
2019-03-31T18:23:27.233Z,99.90
2019-03-31T18:25:57.569Z,99.90
2019-03-31T18:28:28.025Z,99.90
2019-03-31T18:30:58.373Z,99.90
2019-03-31T18:33:28.635Z,99.90
2019-03-31T18:35:59.565Z,99.90
2019-03-31T18:38:30.093Z,99.90
2019-03-31T18:41:03.482Z,99.90
2019-03-31T18:43:32.910Z,99.90
2019-03-31T18:46:03.446Z,99.90
2019-03-31T18:48:34.566Z,99.90
2019-03-31T18:51:05.085Z,99.90
2019-03-31T18:53:43.517Z,99.90
2019-03-31T18:56:21.537Z,99.90
2019-03-31T18:59:14.201Z,99.90
2019-03-31T19:01:59.342Z,99.90
2019-03-31T19:04:58.279Z,99.90
2019-03-31T19:07:47.047Z,99.90
2019-03-31T19:10:48.650Z,99.90
2019-03-31T19:13:25.127Z,99.90
2019-03-31T19:16:05.207Z,97.60
2019-03-31T19:18:43.345Z,93.90
2019-03-31T19:21:30.743Z,91.80
2019-03-31T19:24:23.047Z,93.70
2019-03-31T19:27:04.837Z,89.20
2019-03-31T19:29:48.551Z,82.50
2019-03-31T19:32:24.967Z,82.30
2019-03-31T19:35:20.356Z,78.30
2019-03-31T19:38:03.197Z,82.10
2019-03-31T19:41:05.243Z,80.90
2019-03-31T19:44:00.560Z,76.90
2019-03-31T19:46:55.583Z,79.40
2019-03-31T19:49:53.949Z,75.10
2019-03-31T19:52:40.641Z,74.70
2019-03-31T19:55:32.707Z,78.20
2019-03-31T19:58:12.750Z,78.70
2019-03-31T20:01:07.758Z,86.00
2019-03-31T20:03:57.070Z,91.40
2019-03-31T20:06:45.156Z,96.70
2019-03-31T20:09:35.186Z,99.90
2019-03-31T20:12:24.430Z,99.90
2019-03-31T20:15:08.550Z,99.90
2019-03-31T20:18:00.714Z,99.90
2019-03-31T20:20:50.704Z,99.90
2019-03-31T20:23:38.830Z,99.90
2019-03-31T20:26:29.869Z,99.90
2019-03-31T20:29:08.118Z,99.90
2019-03-31T20:31:53.509Z,99.90
2019-03-31T20:34:30.674Z,99.90
2019-03-31T20:37:27.278Z,99.90
2019-03-31T20:40:23.039Z,99.90
2019-03-31T20:43:21.255Z,99.90
2019-03-31T20:45:51.818Z,99.90
2019-03-31T20:48:22.270Z,99.90
2019-03-31T20:50:52.670Z,99.90
2019-03-31T20:53:22.918Z,99.90
2019-03-31T20:55:53.241Z,99.90
2019-03-31T20:58:23.694Z,99.90
2019-03-31T21:00:53.969Z,99.90
2019-03-31T21:03:24.269Z,99.90
2019-03-31T21:05:55.303Z,99.90
2019-03-31T21:08:25.557Z,99.90
2019-03-31T21:10:56.053Z,99.90
2019-03-31T21:13:26.463Z,99.90
2019-03-31T21:15:56.739Z,99.90
2019-03-31T21:18:27.339Z,99.90
2019-03-31T21:21:03.519Z,99.90
2019-03-31T21:23:35.158Z,99.90
2019-03-31T21:26:15.894Z,99.90
2019-03-31T21:28:46.853Z,99.90
2019-03-31T21:31:17.130Z,99.90
2019-03-31T21:33:47.534Z,99.90
2019-03-31T21:36:17.849Z,99.90
2019-03-31T21:38:48.174Z,99.90
2019-03-31T21:41:21.801Z,99.90
2019-03-31T21:43:51.859Z,99.90
2019-03-31T21:46:26.953Z,99.90
2019-03-31T21:49:03.541Z,99.90
2019-03-31T21:51:35.397Z,99.90
2019-03-31T21:54:10.251Z,99.90
2019-03-31T21:56:44.707Z,99.90
2019-03-31T21:59:16.556Z,99.90
2019-03-31T22:01:52.579Z,99.90
2019-03-31T22:04:25.720Z,99.90
2019-03-31T22:07:03.211Z,99.90
2019-03-31T22:09:33.842Z,99.90
2019-03-31T22:12:05.674Z,99.90
2019-03-31T22:14:39.957Z,99.90
2019-03-31T22:17:23.817Z,99.90
2019-03-31T22:20:34.610Z,99.90
2019-03-31T22:23:08.849Z,99.90
2019-03-31T22:25:49.467Z,99.90
2019-03-31T22:28:30.438Z,99.90
2019-03-31T22:31:06.806Z,99.90
2019-03-31T22:33:41.068Z,99.90
2019-03-31T22:36:28.912Z,99.90
2019-03-31T22:38:59.272Z,99.90
2019-03-31T22:41:29.714Z,99.90
2019-03-31T22:44:00.047Z,99.90
2019-03-31T22:46:30.342Z,99.90
2019-03-31T22:49:00.918Z,99.90
2019-03-31T22:51:31.258Z,99.90
2019-03-31T22:54:02.084Z,99.90
2019-03-31T22:56:32.384Z,99.90
2019-03-31T22:59:02.681Z,99.90
2019-03-31T23:01:33.212Z,99.90
2019-03-31T23:04:03.480Z,99.90
2019-03-31T23:06:33.643Z,99.90
2019-03-31T23:09:04.732Z,99.90
2019-03-31T23:11:35.175Z,99.90
2019-03-31T23:14:05.541Z,99.90
2019-03-31T23:16:35.779Z,99.90
2019-03-31T23:19:06.254Z,99.90
2019-03-31T23:21:36.484Z,99.90
2019-03-31T23:24:07.000Z,99.90
2019-03-31T23:26:37.291Z,99.90
2019-03-31T23:29:07.550Z,99.90
2019-03-31T23:31:38.107Z,99.90
2019-03-31T23:34:08.363Z,99.90
2019-03-31T23:36:39.040Z,99.90
2019-03-31T23:39:09.312Z,99.90
2019-03-31T23:41:39.728Z,99.90
2019-03-31T23:44:09.971Z,99.90
2019-03-31T23:46:40.238Z,99.90
2019-03-31T23:49:10.502Z,99.90
2019-03-31T23:51:41.834Z,99.90
2019-03-31T23:54:12.091Z,99.90
2019-03-31T23:56:42.378Z,99.90
2019-03-31T23:59:12.610Z,99.90
